sensor_id;sensor_type;location;lat;lon;timestamp;pressure;altitude;pressure_sealevel;temperature;humidity
6425;BME280;12193;42.642;23.384;2023-02-19T00:00:09;94680.94;;;8.61;60.09
6425;BME280;12193;42.642;23.384;2023-02-19T00:02:42;94683.59;;;8.67;60.31
6425;BME280;12193;42.642;23.384;2023-02-19T00:05:12;94681.00;;;8.67;60.23
6425;BME280;12193;42.642;23.384;2023-02-19T00:07:41;94677.81;;;8.65;60.59
6425;BME280;12193;42.642;23.384;2023-02-19T00:10:11;94668.28;;;8.51;60.80
6425;BME280;12193;42.642;23.384;2023-02-19T00:12:40;94675.31;;;8.36;61.65
6425;BME280;12193;42.642;23.384;2023-02-19T00:15:09;94675.66;;;8.33;62.20
6425;BME280;12193;42.642;23.384;2023-02-19T00:17:38;94669.75;;;8.39;61.99
6425;BME280;12193;42.642;23.384;2023-02-19T00:20:11;94670.69;;;8.32;62.52
6425;BME280;12193;42.642;23.384;2023-02-19T00:22:40;94669.53;;;8.20;62.94
6425;BME280;12193;42.642;23.384;2023-02-19T00:25:09;94660.78;;;8.21;63.00
6425;BME280;12193;42.642;23.384;2023-02-19T00:27:39;94666.72;;;8.36;62.44
6425;BME280;12193;42.642;23.384;2023-02-19T00:30:09;94668.44;;;8.29;62.75
6425;BME280;12193;42.642;23.384;2023-02-19T00:32:38;94662.66;;;8.13;63.39
6425;BME280;12193;42.642;23.384;2023-02-19T00:35:10;94660.78;;;8.07;63.63
6425;BME280;12193;42.642;23.384;2023-02-19T00:37:40;94660.56;;;7.87;64.49
6425;BME280;12193;42.642;23.384;2023-02-19T00:40:10;94648.78;;;7.70;65.61
6425;BME280;12193;42.642;23.384;2023-02-19T00:42:39;94657.63;;;7.76;65.63
6425;BME280;12193;42.642;23.384;2023-02-19T00:45:08;94652.81;;;7.73;65.92
6425;BME280;12193;42.642;23.384;2023-02-19T00:47:38;94645.47;;;7.91;65.46
6425;BME280;12193;42.642;23.384;2023-02-19T00:50:10;94650.28;;;7.94;64.75
6425;BME280;12193;42.642;23.384;2023-02-19T00:52:39;94641.75;;;7.79;65.43
6425;BME280;12193;42.642;23.384;2023-02-19T00:55:08;94638.25;;;7.57;66.70
6425;BME280;12193;42.642;23.384;2023-02-19T00:57:38;94641.19;;;7.54;67.04
6425;BME280;12193;42.642;23.384;2023-02-19T01:00:09;94631.22;;;7.22;68.50
6425;BME280;12193;42.642;23.384;2023-02-19T01:02:38;94632.03;;;7.09;69.24
6425;BME280;12193;42.642;23.384;2023-02-19T01:05:10;94630.84;;;7.11;69.30
6425;BME280;12193;42.642;23.384;2023-02-19T04:08:26;94741.81;;;7.13;70.22
6425;BME280;12193;42.642;23.384;2023-02-19T04:10:58;94755.25;;;6.86;70.81
6425;BME280;12193;42.642;23.384;2023-02-19T04:13:31;94739.97;;;7.21;69.66
6425;BME280;12193;42.642;23.384;2023-02-19T04:16:06;94740.91;;;7.06;69.65
6425;BME280;12193;42.642;23.384;2023-02-19T04:18:40;94750.84;;;6.94;71.09
6425;BME280;12193;42.642;23.384;2023-02-19T04:21:11;94748.81;;;6.82;71.20
6425;BME280;12193;42.642;23.384;2023-02-19T04:23:44;94752.78;;;6.70;72.00
6425;BME280;12193;42.642;23.384;2023-02-19T04:26:15;94750.22;;;6.70;72.32
6425;BME280;12193;42.642;23.384;2023-02-19T04:28:45;94754.97;;;6.81;71.85
6425;BME280;12193;42.642;23.384;2023-02-19T04:31:15;94757.16;;;6.92;71.94
6425;BME280;12193;42.642;23.384;2023-02-19T04:33:44;94753.16;;;7.26;70.21
6425;BME280;12193;42.642;23.384;2023-02-19T04:36:13;94754.91;;;7.33;69.62
6425;BME280;12193;42.642;23.384;2023-02-19T04:38:45;94757.78;;;7.16;70.37
6425;BME280;12193;42.642;23.384;2023-02-19T04:41:14;94760.16;;;7.03;70.99
6425;BME280;12193;42.642;23.384;2023-02-19T04:43:44;94761.34;;;7.15;70.81
6425;BME280;12193;42.642;23.384;2023-02-19T04:46:13;94764.06;;;7.14;70.86
6425;BME280;12193;42.642;23.384;2023-02-19T04:48:43;94748.19;;;7.24;70.53
6425;BME280;12193;42.642;23.384;2023-02-19T04:51:12;94759.88;;;7.35;70.45
6425;BME280;12193;42.642;23.384;2023-02-19T04:53:42;94759.28;;;7.47;69.09
6425;BME280;12193;42.642;23.384;2023-02-19T04:56:15;94758.03;;;7.43;69.48
6425;BME280;12193;42.642;23.384;2023-02-19T04:58:45;94762.47;;;7.35;69.40
6425;BME280;12193;42.642;23.384;2023-02-19T05:01:14;94768.50;;;7.27;70.10
6425;BME280;12193;42.642;23.384;2023-02-19T05:03:44;94770.03;;;7.36;70.25
6425;BME280;12193;42.642;23.384;2023-02-19T05:06:13;94762.03;;;7.46;69.50
6425;BME280;12193;42.642;23.384;2023-02-19T05:08:43;94770.63;;;7.75;68.22
6425;BME280;12193;42.642;23.384;2023-02-19T05:11:15;94769.56;;;7.70;68.51
6425;BME280;12193;42.642;23.384;2023-02-19T05:13:44;94777.16;;;7.86;68.05
6425;BME280;12193;42.642;23.384;2023-02-19T05:16:15;94775.03;;;7.75;67.80
6425;BME280;12193;42.642;23.384;2023-02-19T05:18:45;94775.47;;;7.93;67.05
6425;BME280;12193;42.642;23.384;2023-02-19T05:21:15;94776.66;;;7.90;66.89
6425;BME280;12193;42.642;23.384;2023-02-19T05:23:44;94774.75;;;7.84;66.68
6425;BME280;12193;42.642;23.384;2023-02-19T05:26:18;94783.16;;;7.86;66.97
6425;BME280;12193;42.642;23.384;2023-02-19T05:28:49;94779.72;;;8.23;65.85
6425;BME280;12193;42.642;23.384;2023-02-19T05:31:19;94784.63;;;8.32;65.17
6425;BME280;12193;42.642;23.384;2023-02-19T05:33:49;94781.00;;;8.47;64.13
6425;BME280;12193;42.642;23.384;2023-02-19T05:36:20;94786.94;;;8.41;64.17
6425;BME280;12193;42.642;23.384;2023-02-19T05:38:51;94785.38;;;8.61;63.20
6425;BME280;12193;42.642;23.384;2023-02-19T05:41:25;94796.88;;;8.73;63.19
6425;BME280;12193;42.642;23.384;2023-02-19T05:43:55;94795.72;;;8.76;63.03
6425;BME280;12193;42.642;23.384;2023-02-19T05:46:27;94792.28;;;8.90;62.31
6425;BME280;12193;42.642;23.384;2023-02-19T05:48:57;94792.34;;;9.17;61.68
6425;BME280;12193;42.642;23.384;2023-02-19T05:51:27;94800.94;;;9.38;61.05
6425;BME280;12193;42.642;23.384;2023-02-19T05:53:56;94800.31;;;9.57;60.20
6425;BME280;12193;42.642;23.384;2023-02-19T05:56:30;94792.09;;;9.81;59.51
6425;BME280;12193;42.642;23.384;2023-02-19T05:59:01;94788.75;;;10.08;58.17
6425;BME280;12193;42.642;23.384;2023-02-19T06:01:33;94798.28;;;10.29;57.81
6425;BME280;12193;42.642;23.384;2023-02-19T06:04:03;94803.22;;;10.64;55.55
6425;BME280;12193;42.642;23.384;2023-02-19T06:06:32;94809.38;;;11.03;54.43
6425;BME280;12193;42.642;23.384;2023-02-19T06:09:02;94807.19;;;11.07;53.98
6425;BME280;12193;42.642;23.384;2023-02-19T06:11:35;94816.44;;;11.22;54.07
6425;BME280;12193;42.642;23.384;2023-02-19T06:14:05;94811.28;;;11.48;52.70
6425;BME280;12193;42.642;23.384;2023-02-19T06:16:34;94822.13;;;11.64;51.83
6425;BME280;12193;42.642;23.384;2023-02-19T06:19:04;94826.16;;;11.73;51.54
6425;BME280;12193;42.642;23.384;2023-02-19T06:21:33;94815.53;;;11.75;51.78
6425;BME280;12193;42.642;23.384;2023-02-19T06:24:06;94822.94;;;11.58;52.17
6425;BME280;12193;42.642;23.384;2023-02-19T06:26:38;94824.13;;;11.62;52.53
6425;BME280;12193;42.642;23.384;2023-02-19T06:29:08;94820.34;;;11.58;52.60
6425;BME280;12193;42.642;23.384;2023-02-19T06:31:37;94820.16;;;11.92;51.94
6425;BME280;12193;42.642;23.384;2023-02-19T06:34:07;94809.91;;;12.10;51.02
6425;BME280;12193;42.642;23.384;2023-02-19T06:36:36;94808.50;;;12.27;50.90
6425;BME280;12193;42.642;23.384;2023-02-19T06:39:05;94814.28;;;12.36;50.39
6425;BME280;12193;42.642;23.384;2023-02-19T06:41:34;94820.66;;;12.65;49.66
6425;BME280;12193;42.642;23.384;2023-02-19T06:44:06;94814.19;;;12.68;49.30
6425;BME280;12193;42.642;23.384;2023-02-19T06:46:36;94814.63;;;13.52;47.65
6425;BME280;12193;42.642;23.384;2023-02-19T06:49:05;94827.13;;;14.30;45.47
6425;BME280;12193;42.642;23.384;2023-02-19T06:51:35;94826.88;;;14.74;43.93
6425;BME280;12193;42.642;23.384;2023-02-19T06:54:04;94826.00;;;15.34;42.67
6425;BME280;12193;42.642;23.384;2023-02-19T06:56:34;94820.28;;;15.95;40.87
6425;BME280;12193;42.642;23.384;2023-02-19T06:59:08;94822.94;;;16.30;40.00
6425;BME280;12193;42.642;23.384;2023-02-19T07:01:38;94820.91;;;16.77;39.22
6425;BME280;12193;42.642;23.384;2023-02-19T07:04:08;94819.06;;;16.89;38.67
6425;BME280;12193;42.642;23.384;2023-02-19T07:06:38;94821.63;;;17.12;38.15
6425;BME280;12193;42.642;23.384;2023-02-19T07:09:07;94816.34;;;16.27;39.39
6425;BME280;12193;42.642;23.384;2023-02-19T07:11:38;94827.72;;;16.10;40.16
6425;BME280;12193;42.642;23.384;2023-02-19T07:14:13;94823.81;;;16.01;40.31
6425;BME280;12193;42.642;23.384;2023-02-19T07:16:43;94818.13;;;16.15;40.02
6425;BME280;12193;42.642;23.384;2023-02-19T07:19:13;94827.75;;;16.33;39.27
6425;BME280;12193;42.642;23.384;2023-02-19T07:21:43;94811.56;;;16.59;38.88
6425;BME280;12193;42.642;23.384;2023-02-19T07:24:12;94804.47;;;16.59;38.55
6425;BME280;12193;42.642;23.384;2023-02-19T07:26:42;94811.09;;;17.24;37.41
6425;BME280;12193;42.642;23.384;2023-02-19T07:29:14;94801.22;;;17.70;36.54
6425;BME280;12193;42.642;23.384;2023-02-19T07:31:43;94800.47;;;18.19;35.61
6425;BME280;12193;42.642;23.384;2023-02-19T07:34:12;94797.50;;;18.65;34.77
6425;BME280;12193;42.642;23.384;2023-02-19T07:36:42;94798.59;;;18.69;34.54
6425;BME280;12193;42.642;23.384;2023-02-19T07:39:12;94800.28;;;18.96;34.12
6425;BME280;12193;42.642;23.384;2023-02-19T07:41:42;94794.28;;;19.00;34.01
6425;BME280;12193;42.642;23.384;2023-02-19T07:44:14;94795.84;;;19.39;33.10
6425;BME280;12193;42.642;23.384;2023-02-19T07:46:43;94801.66;;;19.94;32.40
6425;BME280;12193;42.642;23.384;2023-02-19T07:49:13;94797.84;;;19.80;32.99
6425;BME280;12193;42.642;23.384;2023-02-19T07:51:42;94795.81;;;19.13;33.62
6425;BME280;12193;42.642;23.384;2023-02-19T07:54:11;94797.13;;;19.37;33.80
6425;BME280;12193;42.642;23.384;2023-02-19T07:56:40;94797.78;;;19.06;33.71
6425;BME280;12193;42.642;23.384;2023-02-19T07:59:10;94795.66;;;19.46;33.89
6425;BME280;12193;42.642;23.384;2023-02-19T08:01:43;94796.13;;;18.79;34.06
6425;BME280;12193;42.642;23.384;2023-02-19T08:04:25;94791.91;;;18.61;34.49
6425;BME280;12193;42.642;23.384;2023-02-19T08:06:54;94780.13;;;18.64;34.62
6425;BME280;12193;42.642;23.384;2023-02-19T08:09:24;94783.31;;;18.49;35.00
6425;BME280;12193;42.642;23.384;2023-02-19T08:11:53;94787.66;;;19.36;33.58
6425;BME280;12193;42.642;23.384;2023-02-19T08:14:35;94778.25;;;19.97;32.54
6425;BME280;12193;42.642;23.384;2023-02-19T08:17:06;94777.63;;;20.17;32.09
6425;BME280;12193;42.642;23.384;2023-02-19T08:19:36;94776.28;;;20.51;31.36
6425;BME280;12193;42.642;23.384;2023-02-19T08:22:05;94775.31;;;20.62;31.71
6425;BME280;12193;42.642;23.384;2023-02-19T08:24:35;94775.53;;;18.97;33.30
6425;BME280;12193;42.642;23.384;2023-02-19T08:27:07;94780.66;;;19.08;33.43
6425;BME280;12193;42.642;23.384;2023-02-19T08:29:37;94779.34;;;19.27;33.53
6425;BME280;12193;42.642;23.384;2023-02-19T08:32:09;94766.69;;;18.86;33.92
6425;BME280;12193;42.642;23.384;2023-02-19T08:34:39;94769.53;;;18.26;34.85
6425;BME280;12193;42.642;23.384;2023-02-19T08:37:08;94777.16;;;19.19;33.50
6425;BME280;12193;42.642;23.384;2023-02-19T08:39:39;94785.41;;;19.76;32.76
6425;BME280;12193;42.642;23.384;2023-02-19T08:42:08;94778.28;;;20.34;31.84
6425;BME280;12193;42.642;23.384;2023-02-19T08:44:38;94774.53;;;20.25;32.19
6425;BME280;12193;42.642;23.384;2023-02-19T08:47:10;94772.66;;;19.41;32.97
6425;BME280;12193;42.642;23.384;2023-02-19T08:49:40;94770.22;;;18.92;33.91
6425;BME280;12193;42.642;23.384;2023-02-19T08:52:09;94769.56;;;19.49;32.91
6425;BME280;12193;42.642;23.384;2023-02-19T08:54:38;94771.03;;;19.14;33.45
6425;BME280;12193;42.642;23.384;2023-02-19T08:57:08;94766.72;;;19.29;33.76
6425;BME280;12193;42.642;23.384;2023-02-19T08:59:37;94763.53;;;18.84;34.06
6425;BME280;12193;42.642;23.384;2023-02-19T09:02:11;94771.28;;;19.34;33.29
6425;BME280;12193;42.642;23.384;2023-02-19T09:04:40;94757.25;;;19.55;33.18
6425;BME280;12193;42.642;23.384;2023-02-19T09:07:11;94755.53;;;18.58;34.50
6425;BME280;12193;42.642;23.384;2023-02-19T09:09:41;94744.41;;;18.35;34.94
6425;BME280;12193;42.642;23.384;2023-02-19T09:12:11;94738.25;;;17.96;35.89
6425;BME280;12193;42.642;23.384;2023-02-19T09:14:40;94741.38;;;17.77;36.28
6425;BME280;12193;42.642;23.384;2023-02-19T09:17:13;94737.19;;;18.47;35.39
6425;BME280;12193;42.642;23.384;2023-02-19T09:19:42;94729.84;;;19.87;33.64
6425;BME280;12193;42.642;23.384;2023-02-19T09:22:11;94722.34;;;20.88;31.95
6425;BME280;12193;42.642;23.384;2023-02-19T09:24:41;94720.72;;;21.58;31.74
6425;BME280;12193;42.642;23.384;2023-02-19T09:27:14;94716.97;;;21.54;31.04
6425;BME280;12193;42.642;23.384;2023-02-19T09:29:44;94725.53;;;20.90;31.62
6425;BME280;12193;42.642;23.384;2023-02-19T09:32:16;94722.88;;;21.76;30.81
6425;BME280;12193;42.642;23.384;2023-02-19T09:34:45;94718.63;;;22.25;29.79
6425;BME280;12193;42.642;23.384;2023-02-19T09:37:14;94723.38;;;22.63;29.62
6425;BME280;12193;42.642;23.384;2023-02-19T09:39:44;94727.91;;;22.07;29.75
6425;BME280;12193;42.642;23.384;2023-02-19T09:42:17;94718.28;;;20.76;31.65
6425;BME280;12193;42.642;23.384;2023-02-19T09:44:50;94719.13;;;19.98;33.16
6425;BME280;12193;42.642;23.384;2023-02-19T09:47:24;94718.13;;;20.41;32.30
6425;BME280;12193;42.642;23.384;2023-02-19T09:49:57;94716.19;;;20.78;32.04
6425;BME280;12193;42.642;23.384;2023-02-19T09:52:31;94703.91;;;20.47;32.20
6425;BME280;12193;42.642;23.384;2023-02-19T09:55:08;94706.34;;;21.19;31.37
6425;BME280;12193;42.642;23.384;2023-02-19T09:57:42;94709.84;;;21.40;30.83
6425;BME280;12193;42.642;23.384;2023-02-19T10:00:20;94696.69;;;21.95;30.62
6425;BME280;12193;42.642;23.384;2023-02-19T10:03:01;94684.50;;;21.89;30.19
6425;BME280;12193;42.642;23.384;2023-02-19T10:05:32;94670.16;;;21.35;30.43
6425;BME280;12193;42.642;23.384;2023-02-19T10:08:04;94671.78;;;21.61;30.96
6425;BME280;12193;42.642;23.384;2023-02-19T10:10:36;94674.66;;;22.29;29.87
6425;BME280;12193;42.642;23.384;2023-02-19T10:13:15;94675.97;;;22.46;29.79
6425;BME280;12193;42.642;23.384;2023-02-19T10:15:48;94660.63;;;22.38;29.81
6425;BME280;12193;42.642;23.384;2023-02-19T10:18:21;94655.00;;;22.60;29.23
6425;BME280;12193;42.642;23.384;2023-02-19T10:20:53;94654.22;;;22.54;28.85
6425;BME280;12193;42.642;23.384;2023-02-19T10:23:24;94642.94;;;22.87;28.41
6425;BME280;12193;42.642;23.384;2023-02-19T10:25:56;94638.97;;;21.62;29.93
6425;BME280;12193;42.642;23.384;2023-02-19T10:28:27;94644.75;;;22.03;29.83
6425;BME280;12193;42.642;23.384;2023-02-19T10:30:59;94636.75;;;22.43;28.65
6425;BME280;12193;42.642;23.384;2023-02-19T10:33:31;94632.88;;;22.89;28.31
6425;BME280;12193;42.642;23.384;2023-02-19T10:36:02;94625.00;;;22.69;28.16
6425;BME280;12193;42.642;23.384;2023-02-19T10:38:34;94610.53;;;22.42;28.39
6425;BME280;12193;42.642;23.384;2023-02-19T10:41:06;94613.31;;;21.82;28.92
6425;BME280;12193;42.642;23.384;2023-02-19T10:43:39;94611.69;;;21.96;29.40
6425;BME280;12193;42.642;23.384;2023-02-19T10:46:15;94604.81;;;20.44;30.61
6425;BME280;12193;42.642;23.384;2023-02-19T10:48:50;94594.38;;;20.74;30.80
6425;BME280;12193;42.642;23.384;2023-02-19T10:51:24;94581.00;;;21.45;29.73
6425;BME280;12193;42.642;23.384;2023-02-19T10:54:16;94584.72;;;21.59;29.72
6425;BME280;12193;42.642;23.384;2023-02-19T10:56:46;94589.16;;;22.13;29.13
6425;BME280;12193;42.642;23.384;2023-02-19T10:59:23;94576.44;;;22.20;29.32
6425;BME280;12193;42.642;23.384;2023-02-19T11:01:54;94572.22;;;22.78;28.42
6425;BME280;12193;42.642;23.384;2023-02-19T11:04:28;94569.13;;;22.56;28.25
6425;BME280;12193;42.642;23.384;2023-02-19T11:07:07;94559.44;;;22.26;28.46
6425;BME280;12193;42.642;23.384;2023-02-19T11:09:38;94561.34;;;22.11;29.23
6425;BME280;12193;42.642;23.384;2023-02-19T11:12:09;94559.03;;;21.85;29.04
6425;BME280;12193;42.642;23.384;2023-02-19T11:14:42;94552.31;;;22.12;28.82
6425;BME280;12193;42.642;23.384;2023-02-19T11:17:21;94553.72;;;21.85;29.26
6425;BME280;12193;42.642;23.384;2023-02-19T11:19:55;94539.16;;;21.92;28.88
6425;BME280;12193;42.642;23.384;2023-02-19T11:22:31;94543.22;;;21.60;29.46
6425;BME280;12193;42.642;23.384;2023-02-19T11:25:05;94537.16;;;20.23;30.83
6425;BME280;12193;42.642;23.384;2023-02-19T11:27:35;94538.09;;;19.56;31.81
6425;BME280;12193;42.642;23.384;2023-02-19T11:30:39;94524.63;;;19.16;32.58
6425;BME280;12193;42.642;23.384;2023-02-19T11:33:25;94521.44;;;19.51;32.36
6425;BME280;12193;42.642;23.384;2023-02-19T11:36:22;94523.06;;;20.84;30.29
6425;BME280;12193;42.642;23.384;2023-02-19T11:38:52;94515.94;;;21.44;29.54
6425;BME280;12193;42.642;23.384;2023-02-19T11:41:38;94508.03;;;21.19;30.02
6425;BME280;12193;42.642;23.384;2023-02-19T11:44:22;94501.09;;;20.74;30.02
6425;BME280;12193;42.642;23.384;2023-02-19T11:47:04;94509.25;;;21.92;28.84
6425;BME280;12193;42.642;23.384;2023-02-19T11:49:45;94500.69;;;19.64;31.52
6425;BME280;12193;42.642;23.384;2023-02-19T11:52:31;94497.22;;;20.05;31.07
6425;BME280;12193;42.642;23.384;2023-02-19T11:55:11;94483.69;;;20.93;30.04
6425;BME280;12193;42.642;23.384;2023-02-19T11:57:46;94490.78;;;20.57;30.16
6425;BME280;12193;42.642;23.384;2023-02-19T12:00:24;94488.16;;;21.57;29.03
6425;BME280;12193;42.642;23.384;2023-02-19T12:03:14;94475.91;;;21.91;28.34
6425;BME280;12193;42.642;23.384;2023-02-19T12:06:09;94469.97;;;20.81;29.52
6425;BME280;12193;42.642;23.384;2023-02-19T12:09:10;94469.03;;;21.85;28.47
6425;BME280;12193;42.642;23.384;2023-02-19T12:14:56;94453.28;;;18.60;33.00
6425;BME280;12193;42.642;23.384;2023-02-19T12:17:49;94457.66;;;20.15;30.98
6425;BME280;12193;42.642;23.384;2023-02-19T12:20:26;94447.38;;;20.18;30.62
6425;BME280;12193;42.642;23.384;2023-02-19T12:23:12;94438.97;;;20.36;30.60
6425;BME280;12193;42.642;23.384;2023-02-19T12:25:55;94428.16;;;20.43;30.80
6425;BME280;12193;42.642;23.384;2023-02-19T12:28:42;94431.53;;;21.48;29.23
6425;BME280;12193;42.642;23.384;2023-02-19T12:31:48;94421.81;;;21.23;29.21
6425;BME280;12193;42.642;23.384;2023-02-19T12:34:40;94426.03;;;20.55;30.58
6425;BME280;12193;42.642;23.384;2023-02-19T12:37:25;94410.16;;;19.07;32.36
6425;BME280;12193;42.642;23.384;2023-02-19T12:40:11;94399.75;;;19.22;32.48
6425;BME280;12193;42.642;23.384;2023-02-19T12:42:53;94402.41;;;18.55;32.93
6425;BME280;12193;42.642;23.384;2023-02-19T12:45:29;94403.84;;;17.88;34.26
6425;BME280;12193;42.642;23.384;2023-02-19T12:48:04;94397.41;;;18.53;33.46
6425;BME280;12193;42.642;23.384;2023-02-19T12:50:34;94393.31;;;19.08;32.57
6425;BME280;12193;42.642;23.384;2023-02-19T12:53:21;94383.13;;;18.81;32.92
6425;BME280;12193;42.642;23.384;2023-02-19T12:55:53;94379.16;;;18.42;33.74
6425;BME280;12193;42.642;23.384;2023-02-19T12:58:31;94367.22;;;18.08;34.25
6425;BME280;12193;42.642;23.384;2023-02-19T13:01:04;94363.28;;;17.79;34.51
6425;BME280;12193;42.642;23.384;2023-02-19T13:03:38;94358.88;;;18.42;33.70
6425;BME280;12193;42.642;23.384;2023-02-19T13:06:13;94353.94;;;18.51;33.33
6425;BME280;12193;42.642;23.384;2023-02-19T13:08:50;94353.84;;;18.77;32.63
6425;BME280;12193;42.642;23.384;2023-02-19T13:11:27;94341.97;;;18.33;33.43
6425;BME280;12193;42.642;23.384;2023-02-19T13:14:05;94349.06;;;18.06;34.26
6425;BME280;12193;42.642;23.384;2023-02-19T13:16:42;94340.34;;;18.01;34.01
6425;BME280;12193;42.642;23.384;2023-02-19T13:19:13;94337.09;;;18.20;33.91
6425;BME280;12193;42.642;23.384;2023-02-19T13:21:43;94337.78;;;18.74;33.43
6425;BME280;12193;42.642;23.384;2023-02-19T13:24:30;94332.16;;;18.60;32.72
6425;BME280;12193;42.642;23.384;2023-02-19T13:27:09;94329.06;;;18.32;33.72
6425;BME280;12193;42.642;23.384;2023-02-19T13:30:00;94321.28;;;18.88;32.85
6425;BME280;12193;42.642;23.384;2023-02-19T13:33:01;94319.31;;;18.06;33.80
6425;BME280;12193;42.642;23.384;2023-02-19T13:35:58;94311.28;;;18.49;33.71
6425;BME280;12193;42.642;23.384;2023-02-19T13:38:32;94317.66;;;18.58;33.27
6425;BME280;12193;42.642;23.384;2023-02-19T13:41:03;94310.84;;;18.25;33.80
6425;BME280;12193;42.642;23.384;2023-02-19T13:43:34;94299.78;;;18.23;33.71
6425;BME280;12193;42.642;23.384;2023-02-19T13:46:08;94304.88;;;18.35;33.61
6425;BME280;12193;42.642;23.384;2023-02-19T13:48:39;94306.31;;;18.57;33.42
6425;BME280;12193;42.642;23.384;2023-02-19T13:51:37;94297.25;;;18.33;33.96
6425;BME280;12193;42.642;23.384;2023-02-19T13:54:19;94296.03;;;18.51;33.56
6425;BME280;12193;42.642;23.384;2023-02-19T13:57:23;94294.16;;;18.46;33.48
6425;BME280;12193;42.642;23.384;2023-02-19T13:59:54;94292.84;;;18.12;34.16
6425;BME280;12193;42.642;23.384;2023-02-19T14:02:30;94289.72;;;17.89;34.54
6425;BME280;12193;42.642;23.384;2023-02-19T14:05:03;94293.56;;;17.76;34.66
6425;BME280;12193;42.642;23.384;2023-02-19T14:07:59;94294.56;;;17.71;34.84
6425;BME280;12193;42.642;23.384;2023-02-19T14:10:53;94291.72;;;17.77;35.01
6425;BME280;12193;42.642;23.384;2023-02-19T14:13:55;94286.97;;;17.74;35.23
6425;BME280;12193;42.642;23.384;2023-02-19T14:16:58;94282.38;;;17.91;34.71
6425;BME280;12193;42.642;23.384;2023-02-19T14:19:55;94283.16;;;17.86;34.63
6425;BME280;12193;42.642;23.384;2023-02-19T14:22:58;94272.66;;;17.91;34.47
6425;BME280;12193;42.642;23.384;2023-02-19T14:28:35;94269.72;;;17.88;35.01
6425;BME280;12193;42.642;23.384;2023-02-19T14:31:15;94263.38;;;18.15;34.60
6425;BME280;12193;42.642;23.384;2023-02-19T14:33:48;94259.53;;;18.28;34.59
6425;BME280;12193;42.642;23.384;2023-02-19T14:36:28;94263.19;;;18.22;34.49
6425;BME280;12193;42.642;23.384;2023-02-19T14:39:00;94262.13;;;18.23;34.66
6425;BME280;12193;42.642;23.384;2023-02-19T14:41:33;94270.06;;;18.28;34.74
6425;BME280;12193;42.642;23.384;2023-02-19T14:44:11;94264.06;;;18.37;34.66
6425;BME280;12193;42.642;23.384;2023-02-19T14:46:47;94255.03;;;18.23;34.94
6425;BME280;12193;42.642;23.384;2023-02-19T14:49:22;94244.69;;;17.80;35.58
6425;BME280;12193;42.642;23.384;2023-02-19T14:51:57;94242.22;;;18.00;35.41
6425;BME280;12193;42.642;23.384;2023-02-19T14:54:36;94244.06;;;18.00;35.12
6425;BME280;12193;42.642;23.384;2023-02-19T14:57:11;94243.56;;;18.03;35.14
6425;BME280;12193;42.642;23.384;2023-02-19T14:59:51;94240.50;;;18.16;35.25
6425;BME280;12193;42.642;23.384;2023-02-19T15:02:24;94245.97;;;18.09;35.19
6425;BME280;12193;42.642;23.384;2023-02-19T15:04:54;94246.00;;;18.14;35.25
6425;BME280;12193;42.642;23.384;2023-02-19T15:07:29;94241.53;;;18.15;35.27
6425;BME280;12193;42.642;23.384;2023-02-19T15:10:01;94234.41;;;18.10;35.16
6425;BME280;12193;42.642;23.384;2023-02-19T15:12:34;94229.03;;;17.95;35.35
6425;BME280;12193;42.642;23.384;2023-02-19T15:15:14;94213.56;;;17.68;35.83
6425;BME280;12193;42.642;23.384;2023-02-19T15:17:44;94229.56;;;17.61;36.04
6425;BME280;12193;42.642;23.384;2023-02-19T15:20:17;94228.16;;;17.54;36.54
6425;BME280;12193;42.642;23.384;2023-02-19T15:22:51;94221.06;;;17.28;36.88
6425;BME280;12193;42.642;23.384;2023-02-19T15:25:23;94232.00;;;17.20;37.16
6425;BME280;12193;42.642;23.384;2023-02-19T15:27:55;94225.59;;;17.11;37.46
6425;BME280;12193;42.642;23.384;2023-02-19T15:30:27;94225.34;;;17.12;37.47
6425;BME280;12193;42.642;23.384;2023-02-19T15:32:57;94220.78;;;17.03;37.70
6425;BME280;12193;42.642;23.384;2023-02-19T15:35:28;94216.44;;;16.92;38.09
6425;BME280;12193;42.642;23.384;2023-02-19T15:38:01;94222.56;;;16.97;37.67
6425;BME280;12193;42.642;23.384;2023-02-19T15:40:31;94231.13;;;16.88;38.06
6425;BME280;12193;42.642;23.384;2023-02-19T15:43:01;94242.59;;;16.82;38.26
6425;BME280;12193;42.642;23.384;2023-02-19T15:45:35;94237.91;;;16.84;38.24
6425;BME280;12193;42.642;23.384;2023-02-19T15:48:10;94240.28;;;16.64;38.98
6425;BME280;12193;42.642;23.384;2023-02-19T15:50:46;94250.34;;;16.51;39.78
6425;BME280;12193;42.642;23.384;2023-02-19T15:53:21;94259.72;;;16.47;39.75
6425;BME280;12193;42.642;23.384;2023-02-19T15:55:57;94277.78;;;16.43;40.00
6425;BME280;12193;42.642;23.384;2023-02-19T15:58:32;94273.28;;;16.39;39.97
6425;BME280;12193;42.642;23.384;2023-02-19T16:01:12;94273.63;;;16.31;40.25
6425;BME280;12193;42.642;23.384;2023-02-19T16:03:44;94278.88;;;16.31;40.29
6425;BME280;12193;42.642;23.384;2023-02-19T16:06:15;94289.38;;;16.14;40.80
6425;BME280;12193;42.642;23.384;2023-02-19T16:08:59;94291.94;;;15.93;40.92
6425;BME280;12193;42.642;23.384;2023-02-19T16:11:34;94280.72;;;15.97;41.30
6425;BME280;12193;42.642;23.384;2023-02-19T16:14:23;94281.59;;;16.19;40.66
6425;BME280;12193;42.642;23.384;2023-02-19T16:16:54;94285.25;;;15.85;41.13
6425;BME280;12193;42.642;23.384;2023-02-19T16:19:27;94294.13;;;15.68;41.53
6425;BME280;12193;42.642;23.384;2023-02-19T16:21:58;94296.13;;;15.77;41.84
6425;BME280;12193;42.642;23.384;2023-02-19T16:24:33;94295.34;;;15.77;41.90
6425;BME280;12193;42.642;23.384;2023-02-19T16:27:04;94307.50;;;15.99;41.55
6425;BME280;12193;42.642;23.384;2023-02-19T16:29:33;94301.22;;;16.00;41.43
6425;BME280;12193;42.642;23.384;2023-02-19T16:32:05;94302.41;;;15.93;41.69
6425;BME280;12193;42.642;23.384;2023-02-19T16:34:40;94300.25;;;15.73;42.08
6425;BME280;12193;42.642;23.384;2023-02-19T16:37:34;94310.97;;;15.72;42.30
6425;BME280;12193;42.642;23.384;2023-02-19T16:43:27;94320.44;;;15.73;42.84
6425;BME280;12193;42.642;23.384;2023-02-19T16:45:58;94322.50;;;15.71;42.59
6425;BME280;12193;42.642;23.384;2023-02-19T16:48:28;94316.38;;;15.65;42.56